createdAt,value
2018-04-24T00:04:14.616Z,10.33
2018-04-24T00:10:19.011Z,10.22
2018-04-24T00:16:23.360Z,10.17
2018-04-24T00:22:27.717Z,10.42
2018-04-24T00:28:32.078Z,10.41
2018-04-24T00:34:36.428Z,10.70
2018-04-24T00:40:40.765Z,10.71
2018-04-24T00:46:45.128Z,10.93
2018-04-24T00:52:50.239Z,10.92
2018-04-24T00:58:54.581Z,10.98
2018-04-24T01:04:58.921Z,10.91
2018-04-24T01:11:03.273Z,11.00
2018-04-24T01:17:07.626Z,10.76
2018-04-24T01:23:11.996Z,10.79
2018-04-24T01:29:17.101Z,10.61
2018-04-24T01:35:21.441Z,10.54
2018-04-24T01:41:25.832Z,10.32
2018-04-24T01:47:30.954Z,10.33
2018-04-24T01:53:35.317Z,10.44
2018-04-24T01:59:39.664Z,10.49
2018-04-24T02:05:44.017Z,10.45
2018-04-24T02:11:49.121Z,10.54
2018-04-24T02:17:53.462Z,10.33
2018-04-24T02:23:57.843Z,10.31
2018-04-24T02:30:02.968Z,10.25
2018-04-24T02:36:08.417Z,9.98
2018-04-24T02:42:12.762Z,10.01
2018-04-24T02:48:17.117Z,9.91
2018-04-24T02:54:21.454Z,9.81
2018-04-24T03:00:25.792Z,9.69
2018-04-24T03:06:30.171Z,9.70
2018-04-24T03:12:34.522Z,9.86
2018-04-24T03:18:38.838Z,9.86
2018-04-24T03:24:43.176Z,10.05
2018-04-24T03:30:47.537Z,10.15
2018-04-24T03:36:51.874Z,10.19
2018-04-24T03:42:56.233Z,10.16
2018-04-24T03:49:01.348Z,10.38
2018-04-24T03:55:05.693Z,10.41
2018-04-24T04:01:10.035Z,10.49
2018-04-24T04:07:14.388Z,10.42
2018-04-24T04:13:18.734Z,10.59
2018-04-24T04:19:41.480Z,10.58
2018-04-24T04:25:45.828Z,10.80
2018-04-24T04:31:50.178Z,10.68
2018-04-24T04:37:54.519Z,10.82
2018-04-24T04:44:00.475Z,10.80
2018-04-24T04:50:04.862Z,10.98
2018-04-24T04:56:09.991Z,10.75
2018-04-24T05:02:14.320Z,10.53
2018-04-24T05:08:18.657Z,10.59
2018-04-24T05:14:23.767Z,10.62
2018-04-24T05:20:28.879Z,10.69
2018-04-24T05:26:33.228Z,10.90
2018-04-24T05:32:37.591Z,10.99
2018-04-24T05:38:41.963Z,11.14
2018-04-24T05:44:47.080Z,11.54
2018-04-24T05:50:52.212Z,11.95
2018-04-24T05:56:56.568Z,12.51
2018-04-24T06:03:00.927Z,12.59
2018-04-24T06:09:06.118Z,12.63
2018-04-24T06:15:11.286Z,12.83
2018-04-24T06:21:15.621Z,13.05
2018-04-24T06:27:20.006Z,13.34
2018-04-24T06:33:24.404Z,13.54
2018-04-24T06:39:28.761Z,13.49
2018-04-24T06:45:33.109Z,13.62
2018-04-24T06:51:37.488Z,13.93
2018-04-24T06:57:41.824Z,14.15
2018-04-24T07:03:46.169Z,14.00
2018-04-24T07:09:50.508Z,14.13
2018-04-24T07:15:54.849Z,14.09
2018-04-24T07:21:59.191Z,14.37
2018-04-24T07:28:03.541Z,14.43
2018-04-24T07:34:07.908Z,14.53
2018-04-24T07:40:13.017Z,14.67
2018-04-24T07:46:18.134Z,15.23
2018-04-24T07:52:22.476Z,15.60
2018-04-24T07:58:26.802Z,15.68
2018-04-24T08:04:31.922Z,15.66
2018-04-24T08:10:36.255Z,14.99
2018-04-24T08:16:40.589Z,14.60
2018-04-24T08:22:45.003Z,14.33
2018-04-24T08:28:49.267Z,14.14
2018-04-24T08:34:53.611Z,14.21
2018-04-24T08:40:57.989Z,14.17
2018-04-24T08:47:02.329Z,14.53
2018-04-24T08:53:06.651Z,14.81
2018-04-24T08:59:11.817Z,14.97
2018-04-24T09:05:16.173Z,15.32
2018-04-24T09:11:20.520Z,15.34
2018-04-24T09:17:24.857Z,15.21
2018-04-24T09:23:29.986Z,15.13
2018-04-24T09:29:34.325Z,15.17
2018-04-24T09:35:38.661Z,15.34
2018-04-24T09:41:43.096Z,15.65
2018-04-24T09:47:47.451Z,15.89
2018-04-24T09:53:51.805Z,16.22
2018-04-24T09:59:56.148Z,15.87
2018-04-24T10:06:00.499Z,15.56
2018-04-24T10:12:04.857Z,15.20
2018-04-24T10:18:09.987Z,14.82
2018-04-24T10:24:14.326Z,14.79
2018-04-24T10:30:18.659Z,14.64
2018-04-24T10:36:23.613Z,14.66
2018-04-24T10:42:27.947Z,15.01
2018-04-24T10:48:32.301Z,15.28
2018-04-24T10:54:36.685Z,15.47
2018-04-24T11:00:41.093Z,15.41
2018-04-24T11:06:45.457Z,15.39
2018-04-24T11:12:49.733Z,15.40
2018-04-24T11:18:54.078Z,15.37
2018-04-24T11:24:58.439Z,15.77
2018-04-24T11:31:02.793Z,16.06
2018-04-24T11:37:07.133Z,16.19
2018-04-24T11:43:11.489Z,16.46
2018-04-24T11:49:15.839Z,16.39
2018-04-24T11:55:20.943Z,16.44
2018-04-24T12:01:25.284Z,16.38
2018-04-24T12:07:29.629Z,16.70
2018-04-24T12:13:33.997Z,16.72
2018-04-24T12:19:38.353Z,16.90
2018-04-24T12:25:43.479Z,17.25
2018-04-24T12:31:47.868Z,17.95
2018-04-24T12:37:53.044Z,19.34
2018-04-24T12:43:57.384Z,19.66
2018-04-24T12:50:01.716Z,20.32
2018-04-24T12:56:06.103Z,19.10
2018-04-24T13:02:10.437Z,18.91
2018-04-24T13:08:14.783Z,18.40
2018-04-24T13:14:19.148Z,18.80
2018-04-24T13:20:23.589Z,18.41
2018-04-24T13:26:27.923Z,18.95
2018-04-24T13:32:32.269Z,20.47
2018-04-24T13:38:36.608Z,20.17
2018-04-24T13:44:40.949Z,20.29
2018-04-24T13:50:45.290Z,20.72
2018-04-24T13:56:49.620Z,20.71
2018-04-24T14:02:53.954Z,20.06
2018-04-24T14:08:58.324Z,19.35
2018-04-24T14:15:02.688Z,19.24
2018-04-24T14:21:07.794Z,19.07
2018-04-24T14:27:12.120Z,18.66
2018-04-24T14:33:16.479Z,18.28
2018-04-24T14:39:20.881Z,18.14
2018-04-24T14:45:25.216Z,18.35
2018-04-24T14:51:29.581Z,18.26
2018-04-24T14:57:33.923Z,18.42
2018-04-24T15:03:38.274Z,18.16
2018-04-24T15:09:42.616Z,17.91
2018-04-24T15:15:46.964Z,17.63
2018-04-24T15:21:51.310Z,17.18
2018-04-24T15:27:55.671Z,17.03
2018-04-24T15:34:00.007Z,16.99
2018-04-24T15:40:04.348Z,16.98
2018-04-24T15:46:08.703Z,17.27
2018-04-24T15:52:13.821Z,17.14
2018-04-24T15:58:18.170Z,17.28
2018-04-24T16:04:22.516Z,16.96
2018-04-24T16:10:26.895Z,16.97
2018-04-24T16:16:31.269Z,17.04
2018-04-24T16:22:35.631Z,17.50
2018-04-24T16:28:40.006Z,17.75
2018-04-24T16:34:45.129Z,18.36
2018-04-24T16:40:49.475Z,19.14
2018-04-24T16:46:53.851Z,19.34
2018-04-24T16:52:59.031Z,18.90
2018-04-24T16:59:03.402Z,18.67
2018-04-24T17:05:07.769Z,17.97
2018-04-24T17:11:12.122Z,17.63
2018-04-24T17:17:17.252Z,17.53
2018-04-24T17:23:21.599Z,17.24
2018-04-24T17:29:25.962Z,17.08
2018-04-24T17:35:30.313Z,16.91
2018-04-24T17:41:35.426Z,16.80
2018-04-24T17:47:39.777Z,16.51
2018-04-24T17:53:44.133Z,16.13
2018-04-24T17:59:48.504Z,15.67
2018-04-24T18:05:53.608Z,15.22
2018-04-24T18:11:57.960Z,15.13
2018-04-24T18:18:02.307Z,14.85
2018-04-24T18:24:06.673Z,14.50
2018-04-24T18:30:11.793Z,14.01
2018-04-24T18:36:16.922Z,13.95
2018-04-24T18:42:21.260Z,13.57
2018-04-24T18:48:25.620Z,13.53
2018-04-24T18:54:29.982Z,13.25
2018-04-24T19:00:34.329Z,13.17
2018-04-24T19:06:38.716Z,13.02
2018-04-24T19:12:43.083Z,12.96
2018-04-24T19:18:52.797Z,13.17
2018-04-24T19:31:46.356Z,13.44
2018-04-24T19:37:50.823Z,13.30
2018-04-24T19:43:55.202Z,13.35
2018-04-24T19:50:05.790Z,13.48
2018-04-24T19:56:10.934Z,13.58
2018-04-24T20:02:15.387Z,13.57
2018-04-24T20:08:19.859Z,13.53
2018-04-24T20:14:24.289Z,13.74
2018-04-24T20:20:28.701Z,13.88
2018-04-24T20:26:33.947Z,13.82
2018-04-24T20:32:38.417Z,13.82
2018-04-24T20:38:42.950Z,13.96
2018-04-24T20:44:47.320Z,13.85
2018-04-24T20:50:52.527Z,13.80
2018-04-24T20:56:57.088Z,13.84
2018-04-24T21:03:02.252Z,13.71
2018-04-24T21:09:07.551Z,13.79
2018-04-24T21:15:11.959Z,13.64
2018-04-24T21:21:17.088Z,13.80
2018-04-24T21:27:21.546Z,13.64
2018-04-24T21:33:26.071Z,13.75
2018-04-24T21:39:30.559Z,13.78
2018-04-24T21:45:35.584Z,13.73
2018-04-24T21:51:40.034Z,13.68
2018-04-24T21:57:44.411Z,13.59
2018-04-24T22:03:48.801Z,13.63
2018-04-24T22:09:54.791Z,13.69
2018-04-24T22:15:59.331Z,13.60
2018-04-24T22:22:03.687Z,13.50
2018-04-24T22:28:08.176Z,13.49
2018-04-24T22:34:12.750Z,13.42
2018-04-24T22:40:17.222Z,13.50
2018-04-24T22:46:21.590Z,13.42
2018-04-24T22:52:26.047Z,13.56
2018-04-24T22:58:30.524Z,13.52
2018-04-24T23:04:35.008Z,13.43
2018-04-24T23:10:57.976Z,13.45
2018-04-24T23:17:25.997Z,13.48
2018-04-24T23:23:36.378Z,13.50
2018-04-24T23:29:40.729Z,13.17
2018-04-24T23:35:45.953Z,13.27
2018-04-24T23:41:50.316Z,13.38
2018-04-24T23:47:55.660Z,13.31
2018-04-24T23:54:00.067Z,13.16
